sensor_id;sensor_type;location;lat;lon;timestamp;P1;durP1;ratioP1;P2;durP2;ratioP2
10939;SDS011;5522;42.696;23.494;2022-11-15T00:00:45;143.02;;;46.55;;
10939;SDS011;5522;42.696;23.494;2022-11-15T00:03:13;94.00;;;43.72;;
10939;SDS011;5522;42.696;23.494;2022-11-15T00:05:40;110.60;;;45.08;;
10939;SDS011;5522;42.696;23.494;2022-11-15T00:08:07;136.90;;;47.05;;
10939;SDS011;5522;42.696;23.494;2022-11-15T00:10:34;122.75;;;46.97;;
10939;SDS011;5522;42.696;23.494;2022-11-15T00:13:05;113.88;;;44.88;;
10939;SDS011;5522;42.696;23.494;2022-11-15T00:15:34;112.07;;;45.13;;
10939;SDS011;5522;42.696;23.494;2022-11-15T00:18:01;122.20;;;45.63;;
10939;SDS011;5522;42.696;23.494;2022-11-15T00:20:28;148.70;;;46.42;;
10939;SDS011;5522;42.696;23.494;2022-11-15T00:22:55;132.02;;;45.75;;
10939;SDS011;5522;42.696;23.494;2022-11-15T00:25:22;145.60;;;45.38;;
10939;SDS011;5522;42.696;23.494;2022-11-15T00:27:48;128.15;;;47.67;;
10939;SDS011;5522;42.696;23.494;2022-11-15T00:30:18;130.98;;;45.50;;
10939;SDS011;5522;42.696;23.494;2022-11-15T00:32:45;132.98;;;43.97;;
10939;SDS011;5522;42.696;23.494;2022-11-15T00:35:11;123.32;;;47.03;;
10939;SDS011;5522;42.696;23.494;2022-11-15T00:37:38;164.27;;;45.08;;
10939;SDS011;5522;42.696;23.494;2022-11-15T00:40:05;199.07;;;46.53;;
10939;SDS011;5522;42.696;23.494;2022-11-15T00:42:33;190.30;;;46.50;;
10939;SDS011;5522;42.696;23.494;2022-11-15T00:45:00;157.75;;;43.65;;
10939;SDS011;5522;42.696;23.494;2022-11-15T00:47:28;252.50;;;47.63;;
10939;SDS011;5522;42.696;23.494;2022-11-15T00:49:55;203.52;;;47.22;;
10939;SDS011;5522;42.696;23.494;2022-11-15T00:52:22;236.57;;;48.28;;
10939;SDS011;5522;42.696;23.494;2022-11-15T00:54:48;265.27;;;49.83;;
10939;SDS011;5522;42.696;23.494;2022-11-15T00:57:15;274.20;;;48.70;;
10939;SDS011;5522;42.696;23.494;2022-11-15T01:07:55;119.85;;;40.15;;
10939;SDS011;5522;42.696;23.494;2022-11-15T01:10:26;108.15;;;35.78;;
10939;SDS011;5522;42.696;23.494;2022-11-15T01:12:56;109.50;;;36.40;;
10939;SDS011;5522;42.696;23.494;2022-11-15T01:15:23;125.53;;;38.40;;
10939;SDS011;5522;42.696;23.494;2022-11-15T01:17:50;129.45;;;40.42;;
10939;SDS011;5522;42.696;23.494;2022-11-15T01:25:24;115.22;;;37.95;;
10939;SDS011;5522;42.696;23.494;2022-11-15T01:27:51;129.23;;;35.10;;
10939;SDS011;5522;42.696;23.494;2022-11-15T01:30:17;142.52;;;35.28;;
10939;SDS011;5522;42.696;23.494;2022-11-15T01:32:44;206.68;;;47.63;;
10939;SDS011;5522;42.696;23.494;2022-11-15T01:35:11;147.20;;;42.22;;
10939;SDS011;5522;42.696;23.494;2022-11-15T01:37:38;159.65;;;39.13;;
10939;SDS011;5522;42.696;23.494;2022-11-15T01:40:05;153.70;;;36.65;;
10939;SDS011;5522;42.696;23.494;2022-11-15T01:42:34;155.52;;;38.63;;
10939;SDS011;5522;42.696;23.494;2022-11-15T01:45:00;145.90;;;37.95;;
10939;SDS011;5522;42.696;23.494;2022-11-15T01:47:28;146.68;;;36.38;;
10939;SDS011;5522;42.696;23.494;2022-11-15T01:49:58;149.90;;;36.10;;
10939;SDS011;5522;42.696;23.494;2022-11-15T01:52:29;127.80;;;32.75;;
10939;SDS011;5522;42.696;23.494;2022-11-15T01:55:00;102.65;;;33.08;;
10939;SDS011;5522;42.696;23.494;2022-11-15T01:57:31;89.85;;;33.00;;
10939;SDS011;5522;42.696;23.494;2022-11-15T02:00:00;116.65;;;31.48;;
10939;SDS011;5522;42.696;23.494;2022-11-15T02:02:28;100.88;;;30.48;;
10939;SDS011;5522;42.696;23.494;2022-11-15T02:04:55;77.82;;;27.65;;
10939;SDS011;5522;42.696;23.494;2022-11-15T02:07:22;69.97;;;26.65;;
10939;SDS011;5522;42.696;23.494;2022-11-15T02:09:49;110.20;;;28.48;;
10939;SDS011;5522;42.696;23.494;2022-11-15T02:12:18;89.05;;;27.50;;
10939;SDS011;5522;42.696;23.494;2022-11-15T02:14:48;106.03;;;29.00;;
10939;SDS011;5522;42.696;23.494;2022-11-15T02:17:31;92.70;;;29.55;;
10939;SDS011;5522;42.696;23.494;2022-11-15T02:23:30;89.03;;;28.80;;
10939;SDS011;5522;42.696;23.494;2022-11-15T02:26:19;101.90;;;28.17;;
10939;SDS011;5522;42.696;23.494;2022-11-15T02:29:05;82.82;;;27.77;;
10939;SDS011;5522;42.696;23.494;2022-11-15T02:31:39;146.20;;;31.15;;
10939;SDS011;5522;42.696;23.494;2022-11-15T02:34:11;153.18;;;30.63;;
10939;SDS011;5522;42.696;23.494;2022-11-15T02:36:49;126.35;;;34.88;;
10939;SDS011;5522;42.696;23.494;2022-11-15T02:39:28;103.57;;;32.10;;
10939;SDS011;5522;42.696;23.494;2022-11-15T02:42:02;92.30;;;33.22;;
10939;SDS011;5522;42.696;23.494;2022-11-15T02:44:53;137.60;;;42.88;;
10939;SDS011;5522;42.696;23.494;2022-11-15T02:47:23;120.97;;;35.45;;
10939;SDS011;5522;42.696;23.494;2022-11-15T02:49:53;128.52;;;34.67;;
10939;SDS011;5522;42.696;23.494;2022-11-15T02:52:24;83.10;;;34.05;;
10939;SDS011;5522;42.696;23.494;2022-11-15T02:54:53;119.60;;;35.10;;
10939;SDS011;5522;42.696;23.494;2022-11-15T02:57:23;101.47;;;35.45;;
10939;SDS011;5522;42.696;23.494;2022-11-15T03:00:03;84.47;;;34.72;;
10939;SDS011;5522;42.696;23.494;2022-11-15T03:02:39;91.05;;;35.45;;
10939;SDS011;5522;42.696;23.494;2022-11-15T03:05:15;98.65;;;35.30;;
10939;SDS011;5522;42.696;23.494;2022-11-15T03:07:51;140.35;;;37.28;;
10939;SDS011;5522;42.696;23.494;2022-11-15T03:10:24;84.40;;;31.70;;
10939;SDS011;5522;42.696;23.494;2022-11-15T03:12:59;114.45;;;33.47;;
10939;SDS011;5522;42.696;23.494;2022-11-15T03:15:38;103.43;;;33.60;;
10939;SDS011;5522;42.696;23.494;2022-11-15T03:18:12;173.75;;;38.28;;
10939;SDS011;5522;42.696;23.494;2022-11-15T03:20:45;115.13;;;33.92;;
10939;SDS011;5522;42.696;23.494;2022-11-15T03:23:14;152.27;;;36.40;;
10939;SDS011;5522;42.696;23.494;2022-11-15T03:25:41;147.27;;;35.97;;
10939;SDS011;5522;42.696;23.494;2022-11-15T03:28:13;256.42;;;40.60;;
10939;SDS011;5522;42.696;23.494;2022-11-15T03:30:43;165.10;;;37.25;;
10939;SDS011;5522;42.696;23.494;2022-11-15T03:33:15;142.40;;;37.83;;
10939;SDS011;5522;42.696;23.494;2022-11-15T03:35:44;156.55;;;35.83;;
10939;SDS011;5522;42.696;23.494;2022-11-15T03:38:14;141.27;;;35.95;;
10939;SDS011;5522;42.696;23.494;2022-11-15T03:40:47;205.00;;;40.25;;
10939;SDS011;5522;42.696;23.494;2022-11-15T03:43:20;122.10;;;36.78;;
10939;SDS011;5522;42.696;23.494;2022-11-15T03:45:53;149.88;;;36.22;;
10939;SDS011;5522;42.696;23.494;2022-11-15T03:48:27;188.75;;;38.58;;
10939;SDS011;5522;42.696;23.494;2022-11-15T03:50:59;155.38;;;37.38;;
10939;SDS011;5522;42.696;23.494;2022-11-15T03:53:27;150.77;;;36.22;;
10939;SDS011;5522;42.696;23.494;2022-11-15T03:55:55;226.85;;;40.80;;
10939;SDS011;5522;42.696;23.494;2022-11-15T03:58:22;181.40;;;39.53;;
10939;SDS011;5522;42.696;23.494;2022-11-15T04:00:49;194.82;;;36.78;;
10939;SDS011;5522;42.696;23.494;2022-11-15T04:03:16;187.20;;;38.33;;
10939;SDS011;5522;42.696;23.494;2022-11-15T04:05:44;206.27;;;41.00;;
10939;SDS011;5522;42.696;23.494;2022-11-15T04:08:11;178.93;;;38.22;;
10939;SDS011;5522;42.696;23.494;2022-11-15T04:10:37;179.65;;;40.50;;
10939;SDS011;5522;42.696;23.494;2022-11-15T04:13:04;204.07;;;43.47;;
10939;SDS011;5522;42.696;23.494;2022-11-15T04:15:31;176.05;;;39.95;;
10939;SDS011;5522;42.696;23.494;2022-11-15T04:17:58;192.40;;;42.38;;
10939;SDS011;5522;42.696;23.494;2022-11-15T04:20:25;209.45;;;43.40;;
10939;SDS011;5522;42.696;23.494;2022-11-15T04:23:12;223.98;;;42.47;;
10939;SDS011;5522;42.696;23.494;2022-11-15T04:25:58;228.90;;;54.67;;
10939;SDS011;5522;42.696;23.494;2022-11-15T04:28:27;219.73;;;51.63;;
10939;SDS011;5522;42.696;23.494;2022-11-15T04:30:54;237.00;;;50.65;;
10939;SDS011;5522;42.696;23.494;2022-11-15T04:33:21;227.35;;;50.47;;
10939;SDS011;5522;42.696;23.494;2022-11-15T04:35:48;260.63;;;51.25;;
10939;SDS011;5522;42.696;23.494;2022-11-15T04:38:30;305.80;;;50.80;;
10939;SDS011;5522;42.696;23.494;2022-11-15T04:40:56;265.50;;;45.97;;
10939;SDS011;5522;42.696;23.494;2022-11-15T04:43:23;273.20;;;42.13;;
10939;SDS011;5522;42.696;23.494;2022-11-15T04:45:50;179.77;;;38.40;;
10939;SDS011;5522;42.696;23.494;2022-11-15T04:48:17;282.70;;;44.08;;
10939;SDS011;5522;42.696;23.494;2022-11-15T04:50:43;234.30;;;42.25;;
10939;SDS011;5522;42.696;23.494;2022-11-15T04:53:10;337.17;;;45.65;;
10939;SDS011;5522;42.696;23.494;2022-11-15T04:55:38;323.00;;;43.85;;
10939;SDS011;5522;42.696;23.494;2022-11-15T04:58:06;171.93;;;36.72;;
10939;SDS011;5522;42.696;23.494;2022-11-15T05:00:32;229.68;;;39.58;;
10939;SDS011;5522;42.696;23.494;2022-11-15T05:02:59;209.45;;;37.92;;
10939;SDS011;5522;42.696;23.494;2022-11-15T05:05:42;364.10;;;43.15;;
10939;SDS011;5522;42.696;23.494;2022-11-15T05:08:09;380.45;;;47.03;;
10939;SDS011;5522;42.696;23.494;2022-11-15T05:10:36;282.48;;;42.35;;
10939;SDS011;5522;42.696;23.494;2022-11-15T05:13:04;234.10;;;43.22;;
10939;SDS011;5522;42.696;23.494;2022-11-15T05:15:31;386.65;;;48.22;;
10939;SDS011;5522;42.696;23.494;2022-11-15T05:17:58;314.58;;;47.00;;
10939;SDS011;5522;42.696;23.494;2022-11-15T05:20:25;306.08;;;44.30;;
10939;SDS011;5522;42.696;23.494;2022-11-15T05:22:52;315.65;;;46.05;;
10939;SDS011;5522;42.696;23.494;2022-11-15T05:25:20;366.73;;;46.90;;
10939;SDS011;5522;42.696;23.494;2022-11-15T05:27:47;367.65;;;44.35;;
10939;SDS011;5522;42.696;23.494;2022-11-15T05:30:16;312.83;;;41.40;;
10939;SDS011;5522;42.696;23.494;2022-11-15T05:32:43;336.70;;;42.63;;
10939;SDS011;5522;42.696;23.494;2022-11-15T05:35:12;354.63;;;45.13;;
10939;SDS011;5522;42.696;23.494;2022-11-15T05:37:43;213.60;;;38.67;;
10939;SDS011;5522;42.696;23.494;2022-11-15T05:40:10;344.33;;;42.85;;
10939;SDS011;5522;42.696;23.494;2022-11-15T05:42:37;342.95;;;43.95;;
10939;SDS011;5522;42.696;23.494;2022-11-15T05:45:05;320.60;;;41.33;;
10939;SDS011;5522;42.696;23.494;2022-11-15T05:47:35;374.42;;;43.90;;
10939;SDS011;5522;42.696;23.494;2022-11-15T05:50:04;400.35;;;53.20;;
10939;SDS011;5522;42.696;23.494;2022-11-15T05:52:33;405.65;;;62.05;;
10939;SDS011;5522;42.696;23.494;2022-11-15T05:55:03;440.58;;;62.05;;
10939;SDS011;5522;42.696;23.494;2022-11-15T05:57:33;407.08;;;61.88;;
10939;SDS011;5522;42.696;23.494;2022-11-15T06:00:00;339.23;;;52.88;;
10939;SDS011;5522;42.696;23.494;2022-11-15T06:02:28;282.10;;;53.72;;
10939;SDS011;5522;42.696;23.494;2022-11-15T06:04:56;300.98;;;57.80;;
10939;SDS011;5522;42.696;23.494;2022-11-15T06:07:23;206.35;;;59.03;;
10939;SDS011;5522;42.696;23.494;2022-11-15T06:09:49;272.15;;;73.32;;
10939;SDS011;5522;42.696;23.494;2022-11-15T06:12:16;450.00;;;104.22;;
10939;SDS011;5522;42.696;23.494;2022-11-15T06:14:43;339.80;;;93.05;;
10939;SDS011;5522;42.696;23.494;2022-11-15T06:17:10;334.95;;;96.88;;
10939;SDS011;5522;42.696;23.494;2022-11-15T06:19:36;462.02;;;113.20;;
10939;SDS011;5522;42.696;23.494;2022-11-15T06:22:04;343.45;;;106.60;;
10939;SDS011;5522;42.696;23.494;2022-11-15T06:24:31;528.53;;;143.40;;
10939;SDS011;5522;42.696;23.494;2022-11-15T06:26:58;529.15;;;147.07;;
10939;SDS011;5522;42.696;23.494;2022-11-15T06:29:25;443.83;;;126.60;;
10939;SDS011;5522;42.696;23.494;2022-11-15T06:31:52;440.50;;;112.50;;
10939;SDS011;5522;42.696;23.494;2022-11-15T06:34:18;503.38;;;105.32;;
10939;SDS011;5522;42.696;23.494;2022-11-15T06:36:45;465.52;;;101.82;;
10939;SDS011;5522;42.696;23.494;2022-11-15T06:39:13;366.50;;;93.72;;
10939;SDS011;5522;42.696;23.494;2022-11-15T06:41:40;370.23;;;102.80;;
10939;SDS011;5522;42.696;23.494;2022-11-15T06:44:07;290.50;;;93.75;;
10939;SDS011;5522;42.696;23.494;2022-11-15T06:46:34;353.38;;;103.18;;
10939;SDS011;5522;42.696;23.494;2022-11-15T06:49:01;295.30;;;92.13;;
10939;SDS011;5522;42.696;23.494;2022-11-15T06:51:27;233.20;;;82.00;;
10939;SDS011;5522;42.696;23.494;2022-11-15T06:53:54;352.58;;;99.35;;
10939;SDS011;5522;42.696;23.494;2022-11-15T06:56:22;277.48;;;81.47;;
10939;SDS011;5522;42.696;23.494;2022-11-15T06:58:49;241.00;;;76.40;;
10939;SDS011;5522;42.696;23.494;2022-11-15T07:01:16;237.75;;;69.07;;
10939;SDS011;5522;42.696;23.494;2022-11-15T07:03:43;278.98;;;75.72;;
10939;SDS011;5522;42.696;23.494;2022-11-15T07:06:11;241.13;;;71.47;;
10939;SDS011;5522;42.696;23.494;2022-11-15T07:08:38;184.75;;;60.47;;
10939;SDS011;5522;42.696;23.494;2022-11-15T07:11:06;273.90;;;82.80;;
10939;SDS011;5522;42.696;23.494;2022-11-15T07:13:35;249.88;;;79.03;;
10939;SDS011;5522;42.696;23.494;2022-11-15T07:16:03;216.05;;;65.93;;
10939;SDS011;5522;42.696;23.494;2022-11-15T07:18:33;154.75;;;43.45;;
10939;SDS011;5522;42.696;23.494;2022-11-15T07:21:01;243.20;;;105.75;;
10939;SDS011;5522;42.696;23.494;2022-11-15T07:23:28;127.93;;;48.55;;
10939;SDS011;5522;42.696;23.494;2022-11-15T07:25:56;134.60;;;41.55;;
10939;SDS011;5522;42.696;23.494;2022-11-15T07:28:24;97.90;;;34.45;;
10939;SDS011;5522;42.696;23.494;2022-11-15T07:30:52;111.03;;;39.92;;
10939;SDS011;5522;42.696;23.494;2022-11-15T07:33:19;76.25;;;30.40;;
10939;SDS011;5522;42.696;23.494;2022-11-15T07:35:46;87.13;;;26.85;;
10939;SDS011;5522;42.696;23.494;2022-11-15T07:38:14;53.05;;;19.80;;
10939;SDS011;5522;42.696;23.494;2022-11-15T07:40:44;46.72;;;18.95;;
10939;SDS011;5522;42.696;23.494;2022-11-15T07:43:11;45.88;;;18.40;;
10939;SDS011;5522;42.696;23.494;2022-11-15T07:45:40;30.10;;;14.63;;
10939;SDS011;5522;42.696;23.494;2022-11-15T07:48:09;31.50;;;13.73;;
10939;SDS011;5522;42.696;23.494;2022-11-15T07:50:36;22.38;;;11.68;;
10939;SDS011;5522;42.696;23.494;2022-11-15T07:53:03;21.17;;;11.40;;
10939;SDS011;5522;42.696;23.494;2022-11-15T07:55:29;27.85;;;14.18;;
10939;SDS011;5522;42.696;23.494;2022-11-15T07:58:00;26.17;;;12.02;;
10939;SDS011;5522;42.696;23.494;2022-11-15T08:00:27;36.03;;;17.10;;
10939;SDS011;5522;42.696;23.494;2022-11-15T08:03:00;32.08;;;16.30;;
10939;SDS011;5522;42.696;23.494;2022-11-15T08:05:29;31.08;;;16.50;;
10939;SDS011;5522;42.696;23.494;2022-11-15T08:07:57;26.17;;;14.00;;
10939;SDS011;5522;42.696;23.494;2022-11-15T08:10:24;25.58;;;12.88;;
10939;SDS011;5522;42.696;23.494;2022-11-15T08:12:58;24.40;;;12.27;;
10939;SDS011;5522;42.696;23.494;2022-11-15T08:15:26;25.30;;;14.02;;
10939;SDS011;5522;42.696;23.494;2022-11-15T08:17:53;27.83;;;13.65;;
10939;SDS011;5522;42.696;23.494;2022-11-15T08:20:21;21.73;;;11.35;;
10939;SDS011;5522;42.696;23.494;2022-11-15T08:22:49;24.38;;;13.07;;
10939;SDS011;5522;42.696;23.494;2022-11-15T08:25:16;24.10;;;13.02;;
10939;SDS011;5522;42.696;23.494;2022-11-15T08:27:43;25.55;;;13.45;;
10939;SDS011;5522;42.696;23.494;2022-11-15T08:30:11;29.15;;;16.67;;
10939;SDS011;5522;42.696;23.494;2022-11-15T08:32:38;19.55;;;11.60;;
10939;SDS011;5522;42.696;23.494;2022-11-15T08:35:06;20.25;;;11.48;;
10939;SDS011;5522;42.696;23.494;2022-11-15T08:37:33;17.23;;;10.77;;
10939;SDS011;5522;42.696;23.494;2022-11-15T08:40:02;19.85;;;12.48;;
10939;SDS011;5522;42.696;23.494;2022-11-15T08:42:29;18.73;;;11.10;;
10939;SDS011;5522;42.696;23.494;2022-11-15T08:44:56;24.27;;;12.43;;
10939;SDS011;5522;42.696;23.494;2022-11-15T08:47:23;25.27;;;12.45;;
10939;SDS011;5522;42.696;23.494;2022-11-15T08:49:50;22.02;;;13.52;;
10939;SDS011;5522;42.696;23.494;2022-11-15T08:52:17;21.10;;;13.65;;
10939;SDS011;5522;42.696;23.494;2022-11-15T08:54:43;25.20;;;13.95;;
10939;SDS011;5522;42.696;23.494;2022-11-15T08:57:12;24.00;;;14.05;;
10939;SDS011;5522;42.696;23.494;2022-11-15T08:59:38;24.50;;;13.88;;
10939;SDS011;5522;42.696;23.494;2022-11-15T09:02:05;19.35;;;13.88;;
10939;SDS011;5522;42.696;23.494;2022-11-15T09:04:32;24.63;;;15.13;;
10939;SDS011;5522;42.696;23.494;2022-11-15T09:06:59;22.40;;;14.43;;
10939;SDS011;5522;42.696;23.494;2022-11-15T09:09:26;30.05;;;17.38;;
10939;SDS011;5522;42.696;23.494;2022-11-15T09:11:53;23.92;;;15.85;;
10939;SDS011;5522;42.696;23.494;2022-11-15T09:14:21;28.65;;;15.60;;
10939;SDS011;5522;42.696;23.494;2022-11-15T09:16:47;25.55;;;15.40;;
10939;SDS011;5522;42.696;23.494;2022-11-15T09:19:14;33.42;;;17.30;;
10939;SDS011;5522;42.696;23.494;2022-11-15T09:21:41;43.00;;;21.08;;
10939;SDS011;5522;42.696;23.494;2022-11-15T09:24:08;34.80;;;19.50;;
10939;SDS011;5522;42.696;23.494;2022-11-15T09:26:35;38.38;;;22.15;;
10939;SDS011;5522;42.696;23.494;2022-11-15T09:29:02;42.13;;;22.70;;
10939;SDS011;5522;42.696;23.494;2022-11-15T09:31:30;38.17;;;22.42;;
10939;SDS011;5522;42.696;23.494;2022-11-15T09:33:57;38.55;;;21.65;;
10939;SDS011;5522;42.696;23.494;2022-11-15T09:36:24;39.20;;;21.88;;
10939;SDS011;5522;42.696;23.494;2022-11-15T09:38:52;44.00;;;22.60;;
10939;SDS011;5522;42.696;23.494;2022-11-15T09:41:25;38.63;;;22.27;;
10939;SDS011;5522;42.696;23.494;2022-11-15T09:44:25;43.03;;;22.10;;
10939;SDS011;5522;42.696;23.494;2022-11-15T09:47:10;36.40;;;20.60;;
10939;SDS011;5522;42.696;23.494;2022-11-15T09:49:56;35.70;;;20.83;;
10939;SDS011;5522;42.696;23.494;2022-11-15T09:52:25;32.67;;;19.73;;
10939;SDS011;5522;42.696;23.494;2022-11-15T09:54:52;38.08;;;21.23;;
10939;SDS011;5522;42.696;23.494;2022-11-15T09:57:21;34.53;;;20.27;;
10939;SDS011;5522;42.696;23.494;2022-11-15T10:00:07;37.08;;;19.27;;
10939;SDS011;5522;42.696;23.494;2022-11-15T10:02:46;37.70;;;21.30;;
10939;SDS011;5522;42.696;23.494;2022-11-15T10:05:35;36.53;;;20.67;;
10939;SDS011;5522;42.696;23.494;2022-11-15T10:08:06;36.80;;;19.83;;
10939;SDS011;5522;42.696;23.494;2022-11-15T10:10:47;35.38;;;18.77;;
10939;SDS011;5522;42.696;23.494;2022-11-15T10:13:22;34.88;;;20.23;;
10939;SDS011;5522;42.696;23.494;2022-11-15T10:15:51;34.92;;;20.05;;
10939;SDS011;5522;42.696;23.494;2022-11-15T10:18:25;34.17;;;18.90;;
10939;SDS011;5522;42.696;23.494;2022-11-15T10:20:59;33.95;;;19.05;;
10939;SDS011;5522;42.696;23.494;2022-11-15T10:23:39;31.30;;;19.33;;
10939;SDS011;5522;42.696;23.494;2022-11-15T10:26:06;36.72;;;21.25;;
10939;SDS011;5522;42.696;23.494;2022-11-15T10:28:36;34.05;;;20.42;;
10939;SDS011;5522;42.696;23.494;2022-11-15T10:31:10;35.92;;;21.17;;
10939;SDS011;5522;42.696;23.494;2022-11-15T10:33:49;36.78;;;21.38;;
10939;SDS011;5522;42.696;23.494;2022-11-15T10:36:18;47.92;;;28.70;;
10939;SDS011;5522;42.696;23.494;2022-11-15T10:38:51;37.70;;;21.85;;
10939;SDS011;5522;42.696;23.494;2022-11-15T10:41:21;38.17;;;23.45;;
10939;SDS011;5522;42.696;23.494;2022-11-15T10:44:01;34.15;;;20.45;;
10939;SDS011;5522;42.696;23.494;2022-11-15T10:46:35;31.80;;;21.27;;
10939;SDS011;5522;42.696;23.494;2022-11-15T10:49:12;32.92;;;20.52;;
10939;SDS011;5522;42.696;23.494;2022-11-15T10:51:41;38.38;;;20.90;;
10939;SDS011;5522;42.696;23.494;2022-11-15T10:54:11;31.13;;;19.10;;
10939;SDS011;5522;42.696;23.494;2022-11-15T10:56:39;31.27;;;20.02;;
10939;SDS011;5522;42.696;23.494;2022-11-15T10:59:14;35.22;;;21.17;;
10939;SDS011;5522;42.696;23.494;2022-11-15T11:01:45;33.00;;;20.42;;
10939;SDS011;5522;42.696;23.494;2022-11-15T11:04:14;33.08;;;20.98;;
10939;SDS011;5522;42.696;23.494;2022-11-15T11:06:47;32.75;;;20.20;;
10939;SDS011;5522;42.696;23.494;2022-11-15T11:09:21;33.58;;;20.80;;
10939;SDS011;5522;42.696;23.494;2022-11-15T11:11:55;31.83;;;20.27;;
10939;SDS011;5522;42.696;23.494;2022-11-15T11:14:22;28.58;;;19.73;;
10939;SDS011;5522;42.696;23.494;2022-11-15T11:16:52;31.00;;;19.35;;
10939;SDS011;5522;42.696;23.494;2022-11-15T11:19:30;27.45;;;18.85;;
10939;SDS011;5522;42.696;23.494;2022-11-15T11:22:06;33.38;;;20.23;;
10939;SDS011;5522;42.696;23.494;2022-11-15T11:24:43;31.67;;;19.80;;
10939;SDS011;5522;42.696;23.494;2022-11-15T11:27:18;29.20;;;18.85;;
10939;SDS011;5522;42.696;23.494;2022-11-15T11:29:57;29.00;;;19.05;;
10939;SDS011;5522;42.696;23.494;2022-11-15T11:32:40;32.08;;;19.48;;
10939;SDS011;5522;42.696;23.494;2022-11-15T11:35:20;30.50;;;19.05;;
10939;SDS011;5522;42.696;23.494;2022-11-15T11:37:51;27.95;;;17.65;;
10939;SDS011;5522;42.696;23.494;2022-11-15T11:40:28;27.60;;;18.55;;
10939;SDS011;5522;42.696;23.494;2022-11-15T11:42:58;32.40;;;19.80;;
10939;SDS011;5522;42.696;23.494;2022-11-15T11:48:40;27.92;;;18.30;;
10939;SDS011;5522;42.696;23.494;2022-11-15T11:51:11;27.05;;;18.35;;
10939;SDS011;5522;42.696;23.494;2022-11-15T11:53:44;28.52;;;18.58;;
10939;SDS011;5522;42.696;23.494;2022-11-15T11:56:21;30.85;;;18.63;;
10939;SDS011;5522;42.696;23.494;2022-11-15T11:58:53;35.38;;;20.75;;
10939;SDS011;5522;42.696;23.494;2022-11-15T12:01:23;31.83;;;20.23;;
10939;SDS011;5522;42.696;23.494;2022-11-15T12:03:53;29.85;;;19.42;;
10939;SDS011;5522;42.696;23.494;2022-11-15T12:06:27;30.05;;;18.85;;
10939;SDS011;5522;42.696;23.494;2022-11-15T12:08:59;29.63;;;19.35;;
10939;SDS011;5522;42.696;23.494;2022-11-15T12:11:34;28.23;;;19.42;;
10939;SDS011;5522;42.696;23.494;2022-11-15T12:14:05;29.25;;;19.33;;
10939;SDS011;5522;42.696;23.494;2022-11-15T12:16:37;33.22;;;19.48;;
10939;SDS011;5522;42.696;23.494;2022-11-15T12:19:08;38.97;;;21.75;;
10939;SDS011;5522;42.696;23.494;2022-11-15T12:21:38;36.05;;;21.67;;
10939;SDS011;5522;42.696;23.494;2022-11-15T12:24:12;31.40;;;20.65;;
10939;SDS011;5522;42.696;23.494;2022-11-15T12:26:45;47.75;;;25.45;;
10939;SDS011;5522;42.696;23.494;2022-11-15T12:29:16;36.95;;;22.85;;
10939;SDS011;5522;42.696;23.494;2022-11-15T12:31:48;41.80;;;27.55;;
10939;SDS011;5522;42.696;23.494;2022-11-15T12:34:34;33.33;;;21.40;;
10939;SDS011;5522;42.696;23.494;2022-11-15T12:40:22;33.38;;;20.00;;
10939;SDS011;5522;42.696;23.494;2022-11-15T12:45:55;31.42;;;18.55;;
10939;SDS011;5522;42.696;23.494;2022-11-15T12:48:46;32.97;;;18.95;;
10939;SDS011;5522;42.696;23.494;2022-11-15T13:03:13;30.48;;;19.75;;
10939;SDS011;5522;42.696;23.494;2022-11-15T13:08:57;28.35;;;18.65;;
10939;SDS011;5522;42.696;23.494;2022-11-15T13:11:43;27.05;;;17.77;;
10939;SDS011;5522;42.696;23.494;2022-11-15T13:17:32;26.63;;;17.67;;
10939;SDS011;5522;42.696;23.494;2022-11-15T13:20:07;28.95;;;19.30;;
10939;SDS011;5522;42.696;23.494;2022-11-15T13:22:44;25.70;;;18.08;;
10939;SDS011;5522;42.696;23.494;2022-11-15T13:25:23;31.35;;;19.17;;
10939;SDS011;5522;42.696;23.494;2022-11-15T13:28:03;27.23;;;18.83;;
10939;SDS011;5522;42.696;23.494;2022-11-15T13:30:49;24.58;;;17.40;;
10939;SDS011;5522;42.696;23.494;2022-11-15T13:33:19;24.67;;;18.10;;
10939;SDS011;5522;42.696;23.494;2022-11-15T13:35:49;28.02;;;19.17;;
10939;SDS011;5522;42.696;23.494;2022-11-15T13:38:18;29.60;;;20.50;;
10939;SDS011;5522;42.696;23.494;2022-11-15T13:40:51;28.48;;;19.70;;
10939;SDS011;5522;42.696;23.494;2022-11-15T13:43:23;30.25;;;19.83;;
10939;SDS011;5522;42.696;23.494;2022-11-15T13:46:10;33.03;;;21.98;;
10939;SDS011;5522;42.696;23.494;2022-11-15T13:48:39;33.10;;;21.25;;
10939;SDS011;5522;42.696;23.494;2022-11-15T13:51:10;44.38;;;25.35;;
10939;SDS011;5522;42.696;23.494;2022-11-15T13:53:42;63.80;;;33.45;;
10939;SDS011;5522;42.696;23.494;2022-11-15T13:56:13;65.13;;;33.63;;
10939;SDS011;5522;42.696;23.494;2022-11-15T13:58:41;67.95;;;36.60;;
10939;SDS011;5522;42.696;23.494;2022-11-15T14:01:14;77.20;;;38.60;;
10939;SDS011;5522;42.696;23.494;2022-11-15T14:03:49;79.95;;;40.35;;
10939;SDS011;5522;42.696;23.494;2022-11-15T14:06:19;87.03;;;39.70;;
10939;SDS011;5522;42.696;23.494;2022-11-15T14:11:51;77.80;;;39.38;;
10939;SDS011;5522;42.696;23.494;2022-11-15T14:14:19;75.45;;;40.83;;
10939;SDS011;5522;42.696;23.494;2022-11-15T14:16:50;77.38;;;38.90;;
10939;SDS011;5522;42.696;23.494;2022-11-15T14:19:37;75.68;;;38.42;;
10939;SDS011;5522;42.696;23.494;2022-11-15T14:22:16;67.28;;;34.08;;
10939;SDS011;5522;42.696;23.494;2022-11-15T14:24:47;55.22;;;30.50;;
10939;SDS011;5522;42.696;23.494;2022-11-15T14:27:33;50.92;;;27.58;;
10939;SDS011;5522;42.696;23.494;2022-11-15T14:29:59;51.15;;;28.90;;
10939;SDS011;5522;42.696;23.494;2022-11-15T14:32:29;53.97;;;30.05;;
10939;SDS011;5522;42.696;23.494;2022-11-15T14:35:12;49.42;;;28.45;;
10939;SDS011;5522;42.696;23.494;2022-11-15T14:37:40;41.53;;;27.48;;
10939;SDS011;5522;42.696;23.494;2022-11-15T14:40:08;49.97;;;26.90;;
10939;SDS011;5522;42.696;23.494;2022-11-15T14:42:38;45.15;;;26.00;;
10939;SDS011;5522;42.696;23.494;2022-11-15T14:45:08;48.20;;;26.55;;
10939;SDS011;5522;42.696;23.494;2022-11-15T14:47:39;42.78;;;26.00;;
10939;SDS011;5522;42.696;23.494;2022-11-15T14:50:06;48.35;;;28.33;;
10939;SDS011;5522;42.696;23.494;2022-11-15T14:52:37;48.10;;;27.60;;
10939;SDS011;5522;42.696;23.494;2022-11-15T14:55:10;51.95;;;29.27;;
10939;SDS011;5522;42.696;23.494;2022-11-15T14:57:43;53.25;;;30.38;;
10939;SDS011;5522;42.696;23.494;2022-11-15T15:00:10;58.50;;;31.02;;
10939;SDS011;5522;42.696;23.494;2022-11-15T15:02:40;51.92;;;29.60;;
10939;SDS011;5522;42.696;23.494;2022-11-15T15:05:14;48.58;;;29.40;;
10939;SDS011;5522;42.696;23.494;2022-11-15T15:07:42;64.07;;;30.42;;
10939;SDS011;5522;42.696;23.494;2022-11-15T15:10:09;57.08;;;29.23;;
10939;SDS011;5522;42.696;23.494;2022-11-15T15:12:37;57.45;;;31.02;;
10939;SDS011;5522;42.696;23.494;2022-11-15T15:15:04;55.00;;;32.17;;
10939;SDS011;5522;42.696;23.494;2022-11-15T15:17:32;57.55;;;31.67;;
10939;SDS011;5522;42.696;23.494;2022-11-15T15:20:00;58.03;;;31.77;;
10939;SDS011;5522;42.696;23.494;2022-11-15T15:22:27;64.13;;;33.83;;